Time;durP1;ratioP1;P1;durP2;ratioP2;P2;SDS_P1;SDS_P2;PMS_P1;PMS_P2;Temp;Humidity;BMP_temperature;BMP_pressure;BME280_temperature;BME280_humidity;BME280_pressure;Samples;Min_cycle;Max_cycle;Signal;HPM_P1;HPM_P2
2022/01/27 00:00:49;;;;;;;5.22;4.72;;;;;;;-13.41;75.73;100809.31;5077642;28;20102;-58
2022/01/27 00:03:26;;;;;;;6.43;4.57;;;;;;;-13.20;75.77;100805.22;5078842;28;20123;-58
2022/01/27 00:06:02;;;;;;;6.07;4.70;;;;;;;-13.05;75.61;100799.91;5078741;28;20354;-57
2022/01/27 00:08:42;;;;;;;6.22;4.72;;;;;;;-12.93;75.46;100786.59;5078924;28;20075;-59
2022/01/27 00:11:15;;;;;;;;;;;;;;;-12.75;75.41;100793.19;5079310;28;20220;-58
2022/01/27 00:13:49;;;;;;;6.40;4.28;;;;;;;-13.29;75.10;100688.06;5078839;28;20195;-59
2022/01/27 00:16:24;;;;;;;9.35;4.95;;;;;;;-12.58;75.08;100792.06;5078404;28;20102;-58
2022/01/27 00:18:56;;;;;;;6.75;4.55;;;;;;;-12.71;75.11;100770.03;5078550;28;20080;-59
2022/01/27 00:21:31;;;;;;;7.07;4.40;;;;;;;-12.61;74.76;100777.59;5078170;28;20112;-57
2022/01/27 00:24:05;;;;;;;11.02;5.40;;;;;;;-12.63;75.03;100763.13;5078291;28;20239;-59
2022/01/27 00:26:36;;;;;;;7.75;4.85;;;;;;;-12.39;75.29;100784.44;5078389;28;20228;-56
2022/01/27 00:29:08;;;;;;;9.00;5.13;;;;;;;-12.33;75.28;100779.88;5078302;28;20155;-58
2022/01/27 00:31:39;;;;;;;6.47;4.75;;;;;;;-12.20;75.13;100777.63;5077815;28;20097;-58
2022/01/27 00:34:11;;;;;;;9.27;5.07;;;;;;;-12.01;75.09;100776.59;5078177;28;20366;-59
2022/01/27 00:36:43;;;;;;;5.90;4.63;;;;;;;-11.91;74.59;100766.50;5078239;28;20345;-58
2022/01/27 00:39:16;;;;;;;7.65;4.88;;;;;;;-11.69;74.16;100768.22;5078201;28;20084;-57
2022/01/27 00:41:48;;;;;;;7.85;5.25;;;;;;;-11.65;73.83;100765.19;5078350;28;20106;-58
2022/01/27 00:44:19;;;;;;;8.82;5.15;;;;;;;-11.61;73.62;100762.13;5078106;28;20062;-57
2022/01/27 00:46:51;;;;;;;7.35;4.85;;;;;;;-11.67;73.60;100736.44;5078274;28;20048;-58
2022/01/27 00:49:22;;;;;;;7.13;4.85;;;;;;;-11.41;73.37;100766.22;5078116;28;20056;-57
2022/01/27 00:51:54;;;;;;;9.40;5.05;;;;;;;-11.41;73.04;100772.16;5077921;28;20052;-58
2022/01/27 00:54:28;;;;;;;5.28;3.83;;;;;;;-11.46;72.81;100768.38;5078166;28;20070;-58
2022/01/27 00:57:07;;;;;;;7.47;4.60;;;;;;;-11.40;73.04;100771.41;5077851;28;20048;-57
2022/01/27 00:59:49;;;;;;;6.90;4.70;;;;;;;-11.72;72.86;100713.41;5078227;28;20239;-58
2022/01/27 01:02:31;;;;;;;9.00;4.53;;;;;;;-11.34;72.73;100769.34;5077508;28;20048;-58
2022/01/27 01:05:16;;;;;;;10.40;5.50;;;;;;;-11.35;72.52;100760.03;5077915;28;20242;-57
2022/01/27 01:07:51;;;;;;;6.65;4.22;;;;;;;-11.22;72.68;100768.56;5078297;28;20243;-58
2022/01/27 01:16:25;;;;;;;8.30;4.72;;;;;;;-11.04;72.01;100759.88;5015996;28;19924;-58
2022/01/27 01:19:05;;;;;;;8.80;4.88;;;;;;;-10.96;72.04;100750.38;5015648;28;20217;-58
2022/01/27 01:21:54;;;;;;;8.48;4.38;;;;;;;-10.89;71.34;100753.50;5055007;28;20111;-58
2022/01/27 01:30:33;;;;;;;7.35;4.85;;;;;;;-10.79;70.64;100744.09;5077402;28;20052;-58
2022/01/27 01:33:08;;;;;;;10.27;4.85;;;;;;;-10.83;71.17;100732.00;5077531;28;20048;-57
2022/01/27 01:35:48;;;;;;;7.68;4.63;;;;;;;-10.92;70.73;100712.88;5077576;28;20051;-59
2022/01/27 01:38:22;;;;;;;9.20;4.65;;;;;;;-10.79;71.04;100731.47;5077654;28;20285;-57
2022/01/27 01:40:56;;;;;;;6.55;4.50;;;;;;;-10.79;71.14;100741.59;5077383;28;20123;-58
2022/01/27 01:43:31;;;;;;;6.53;4.45;;;;;;;-10.89;71.47;100737.47;5077290;28;20116;-57
2022/01/27 01:46:02;;;;;;;9.27;6.00;;;;;;;-10.93;70.96;100703.56;5077311;28;20048;-58
2022/01/27 01:48:34;;;;;;;8.38;5.40;;;;;;;-11.59;70.67;100595.09;5077392;28;20120;-58
2022/01/27 01:51:06;;;;;;;12.23;5.95;;;;;;;-10.74;70.92;100735.22;5077421;28;20052;-59
2022/01/27 01:53:38;;;;;;;7.85;5.22;;;;;;;-11.11;70.62;100674.38;5077219;28;20111;-57
2022/01/27 01:56:10;;;;;;;6.47;4.32;;;;;;;-10.74;70.90;100723.47;5077232;28;20098;-57
2022/01/27 01:58:43;;;;;;;12.30;6.25;;;;;;;-10.78;71.17;100728.19;5077122;28;20246;-58
2022/01/27 02:01:18;;;;;;;10.10;5.30;;;;;;;-11.02;71.14;100677.63;5077099;28;20084;-59
2022/01/27 02:03:52;;;;;;;4.15;3.47;;;;;;;-10.65;70.99;100713.22;5060094;28;20373;-58
2022/01/27 02:06:31;;;;;;;15.02;6.38;;;;;;;-10.57;70.80;100719.72;5077265;28;20266;-58
2022/01/27 02:09:14;;;;;;;10.05;6.25;;;;;;;-10.53;70.50;100716.66;5077269;28;20355;-58
2022/01/27 02:20:14;;;;;;;6.78;3.78;;;;;;;-10.34;69.21;100637.16;5052642;28;20084;-58
2022/01/27 02:22:44;;;;;;;5.13;3.95;;;;;;;-9.88;68.56;100701.09;5051662;28;20052;-58
2022/01/27 02:25:17;;;;;;;5.68;4.00;;;;;;;-9.88;68.32;100699.47;5055594;28;20137;-58
2022/01/27 02:27:48;;;;;;;6.22;4.30;;;;;;;-9.87;68.45;100692.75;5055956;28;20388;-58
2022/01/27 02:30:19;;;;;;;5.55;3.83;;;;;;;-9.85;68.41;100693.75;5055819;28;20060;-59
2022/01/27 02:32:52;;;;;;;7.32;4.00;;;;;;;-9.93;68.58;100697.34;5056766;28;20118;-59
2022/01/27 02:35:26;;;;;;;5.97;4.03;;;;;;;-9.91;68.58;100695.81;5056627;28;20276;-59
2022/01/27 02:37:57;;;;;;;5.68;3.80;;;;;;;-9.94;68.64;100695.63;5056906;28;20045;-57
2022/01/27 02:40:36;;;;;;;5.30;3.80;;;;;;;-9.92;69.02;100692.44;5056440;28;20345;-58
2022/01/27 02:43:07;;;;;;;5.13;3.90;;;;;;;-10.27;69.39;100650.31;5055572;28;20065;-58
2022/01/27 02:45:42;;;;;;;5.50;3.38;;;;;;;-10.32;69.33;100630.59;5056348;28;20057;-58
2022/01/27 02:48:14;;;;;;;6.88;3.42;;;;;;;-10.00;69.46;100685.94;5055459;28;20076;-57
2022/01/27 02:50:47;;;;;;;5.38;3.58;;;;;;;-9.99;69.22;100663.28;5056231;28;20061;-58
2022/01/27 02:53:18;;;;;;;6.28;4.00;;;;;;;-9.80;69.35;100679.78;5055404;28;20061;-57
2022/01/27 02:55:49;;;;;;;5.18;3.47;;;;;;;-9.79;68.75;100676.47;5056500;28;20052;-57
2022/01/27 02:58:19;;;;;;;6.25;4.22;;;;;;;-9.70;68.52;100677.13;5056418;28;20067;-58
2022/01/27 03:00:50;;;;;;;6.00;4.07;;;;;;;-9.71;68.06;100679.53;5055575;28;20446;-57
2022/01/27 03:03:21;;;;;;;5.97;3.67;;;;;;;-9.67;68.11;100672.28;5053013;28;20052;-60
2022/01/27 03:05:54;;;;;;;7.07;4.78;;;;;;;-9.60;67.76;100679.53;5056241;28;20130;-58
2022/01/27 03:08:24;;;;;;;6.68;4.28;;;;;;;-9.43;67.77;100677.34;5056294;28;20060;-57
2022/01/27 03:11:03;;;;;;;6.53;4.22;;;;;;;-9.41;66.92;100660.56;5056268;28;20367;-57
2022/01/27 03:13:34;;;;;;;8.35;3.97;;;;;;;-9.36;66.59;100669.38;5056024;28;20239;-57
2022/01/27 03:16:08;;;;;;;5.65;3.47;;;;;;;-9.48;66.46;100664.34;5055967;28;20389;-58
2022/01/27 03:18:39;;;;;;;5.97;4.22;;;;;;;-9.60;66.78;100644.13;5055908;28;20100;-57
2022/01/27 03:21:11;;;;;;;7.45;3.78;;;;;;;-9.45;66.79;100648.50;5056097;28;20120;-59
2022/01/27 03:23:42;;;;;;;7.03;4.53;;;;;;;-9.32;66.69;100647.69;5055791;28;20052;-58
2022/01/27 03:26:12;;;;;;;6.78;4.53;;;;;;;-9.26;66.55;100645.56;5055983;28;20049;-58
2022/01/27 03:28:43;;;;;;;5.75;3.60;;;;;;;-9.20;66.05;100635.88;5056172;28;20053;-57
2022/01/27 03:31:14;;;;;;;5.72;3.95;;;;;;;-9.49;65.94;100585.81;5055770;28;20064;-57
2022/01/27 03:33:45;;;;;;;4.75;3.55;;;;;;;-9.18;65.90;100635.22;5055698;28;20242;-58
2022/01/27 03:36:18;;;;;;;5.95;4.15;;;;;;;-9.09;65.58;100639.13;5053139;28;20235;-57
2022/01/27 03:38:49;;;;;;;5.70;3.63;;;;;;;-9.09;65.40;100634.06;5054744;28;20060;-59
2022/01/27 03:41:22;;;;;;;9.25;3.53;;;;;;;-9.15;65.36;100630.34;5054866;28;20123;-58
2022/01/27 03:43:53;;;;;;;7.57;3.90;;;;;;;-9.16;66.07;100633.66;5055368;28;20051;-58
2022/01/27 03:46:23;;;;;;;6.28;3.75;;;;;;;-9.17;65.94;100636.09;5055581;28;20052;-58
2022/01/27 03:48:55;;;;;;;3.15;2.78;;;;;;;-9.45;66.45;100602.97;5054471;28;20044;-56
2022/01/27 03:51:27;;;;;;;4.78;3.55;;;;;;;-9.29;66.63;100641.19;5055369;28;20068;-59
2022/01/27 03:53:58;;;;;;;4.60;3.28;;;;;;;-9.32;66.74;100635.91;5055486;28;20041;-58
2022/01/27 03:56:29;;;;;;;4.80;3.30;;;;;;;-9.43;66.71;100641.91;5055418;28;20255;-60
2022/01/27 03:58:59;;;;;;;4.57;3.53;;;;;;;-9.36;66.37;100639.00;5055570;28;20055;-58
2022/01/27 04:01:31;;;;;;;5.28;3.47;;;;;;;-9.28;66.95;100627.78;5054886;28;20051;-58
2022/01/27 04:04:02;;;;;;;3.95;2.97;;;;;;;-9.21;66.71;100623.97;5055389;28;20099;-59
2022/01/27 04:06:36;;;;;;;5.90;3.65;;;;;;;-9.19;66.55;100619.91;5055119;28;20131;-59
2022/01/27 04:09:09;;;;;;;4.07;3.17;;;;;;;-9.24;66.15;100619.59;5054795;28;20060;-58
2022/01/27 04:11:41;;;;;;;5.38;3.85;;;;;;;-9.40;66.58;100616.81;5054791;28;20522;-58
2022/01/27 04:14:12;;;;;;;4.13;3.03;;;;;;;-9.53;67.76;100615.09;5054222;28;20053;-57
2022/01/27 04:16:43;;;;;;;4.10;3.38;;;;;;;-9.69;68.19;100618.19;5054073;28;20099;-57
2022/01/27 04:19:14;;;;;;;5.50;3.55;;;;;;;-9.58;68.89;100617.28;5054908;28;20065;-57
2022/01/27 04:21:46;;;;;;;5.18;3.47;;;;;;;-9.51;69.06;100623.63;5055072;28;20243;-57
2022/01/27 04:24:17;;;;;;;4.05;3.42;;;;;;;-9.42;68.90;100633.53;5054616;28;20048;-58
2022/01/27 04:26:55;;;;;;;4.30;2.83;;;;;;;-9.45;68.73;100628.25;5053999;28;20060;-58
2022/01/27 04:29:25;;;;;;;3.97;3.08;;;;;;;-9.38;69.08;100630.44;5054479;28;20061;-58
2022/01/27 04:31:56;;;;;;;5.60;3.83;;;;;;;-9.38;70.48;100625.38;5053913;28;20051;-59
2022/01/27 04:34:28;;;;;;;5.65;3.47;;;;;;;-9.41;71.09;100615.03;5054339;28;20087;-60
2022/01/27 04:37:00;;;;;;;4.88;3.38;;;;;;;-9.40;70.83;100624.41;5054617;28;20056;-56
2022/01/27 04:39:37;;;;;;;6.63;3.95;;;;;;;-9.51;69.33;100622.75;5054199;28;20099;-58
2022/01/27 04:42:14;;;;;;;5.75;4.00;;;;;;;-9.58;68.58;100617.28;5053223;28;20259;-58
2022/01/27 04:44:53;;;;;;;4.82;3.97;;;;;;;-9.52;68.56;100605.84;5053791;28;20088;-58
2022/01/27 04:47:29;;;;;;;5.22;3.67;;;;;;;-9.58;68.77;100617.28;5052966;28;20059;-58
2022/01/27 04:50:00;;;;;;;5.72;4.03;;;;;;;-9.59;69.23;100615.53;5053796;28;20067;-58
2022/01/27 04:52:36;;;;;;;5.03;3.55;;;;;;;-9.53;69.97;100626.84;5052666;28;20112;-58
2022/01/27 04:55:10;;;;;;;9.35;4.40;;;;;;;-9.51;69.76;100617.69;5052587;28;20049;-58
2022/01/27 04:57:44;;;;;;;7.72;4.25;;;;;;;-9.60;69.88;100608.72;5053177;28;20120;-58
2022/01/27 05:00:16;;;;;;;4.88;3.42;;;;;;;-9.65;69.31;100614.25;5053325;28;20059;-58
2022/01/27 05:02:54;;;;;;;4.70;3.33;;;;;;;-9.65;69.97;100615.09;5052649;28;20045;-58
2022/01/27 05:05:25;;;;;;;4.38;3.50;;;;;;;-9.62;70.31;100620.38;5052548;28;20124;-57
2022/01/27 05:08:00;;;;;;;5.55;4.20;;;;;;;-9.62;70.49;100627.09;5052891;28;20068;-57
2022/01/27 05:10:34;;;;;;;6.85;3.95;;;;;;;-9.71;70.30;100604.56;5053670;28;20044;-58
2022/01/27 05:13:11;;;;;;;5.43;3.63;;;;;;;-9.78;69.20;100617.56;5053010;28;20088;-58
2022/01/27 05:15:45;;;;;;;5.13;3.60;;;;;;;-9.78;68.91;100620.09;5052878;28;20414;-59
2022/01/27 05:18:17;;;;;;;4.88;3.22;;;;;;;-9.75;69.45;100617.78;5053087;28;20080;-59
2022/01/27 05:20:47;;;;;;;4.68;3.20;;;;;;;-9.82;69.77;100615.56;5052410;28;20542;-58
2022/01/27 05:23:20;;;;;;;5.75;2.97;;;;;;;-9.72;69.57;100617.97;5052399;28;20083;-59
2022/01/27 05:25:50;;;;;;;5.95;3.70;;;;;;;-9.75;69.43;100612.72;5053156;28;20053;-59
2022/01/27 05:28:21;;;;;;;5.65;3.22;;;;;;;-9.82;69.06;100620.63;5052903;28;20052;-59
2022/01/27 05:30:52;;;;;;;3.60;3.03;;;;;;;-9.78;68.39;100628.56;5052621;28;20052;-60
2022/01/27 05:33:23;;;;;;;12.63;6.63;;;;;;;-9.81;67.94;100617.31;5053374;28;20144;-57
2022/01/27 05:35:53;;;;;;;9.85;5.28;;;;;;;-9.80;67.86;100626.69;5053177;28;20063;-57
2022/01/27 05:38:26;;;;;;;7.80;4.63;;;;;;;-9.75;68.80;100627.00;5053594;28;20052;-58
2022/01/27 05:40:56;;;;;;;6.35;3.80;;;;;;;-9.70;69.59;100625.69;5052422;28;20055;-58
2022/01/27 05:43:27;;;;;;;6.22;3.47;;;;;;;-9.77;69.10;100624.38;5053067;28;20063;-57
2022/01/27 05:45:58;;;;;;;5.15;3.70;;;;;;;-9.92;69.16;100618.25;5052649;28;20359;-58
2022/01/27 05:48:29;;;;;;;5.43;3.58;;;;;;;-9.94;70.03;100635.81;5053744;28;20041;-59
2022/01/27 05:51:00;;;;;;;4.05;3.25;;;;;;;-9.98;70.60;100639.78;5053758;28;20112;-57
2022/01/27 05:53:32;;;;;;;5.00;3.35;;;;;;;-10.03;71.24;100641.09;5053824;28;20293;-58
2022/01/27 05:56:03;;;;;;;3.67;2.75;;;;;;;-10.19;72.51;100633.19;5053381;28;20041;-57
2022/01/27 05:58:34;;;;;;;5.03;4.05;;;;;;;-10.24;73.52;100639.56;5056246;28;20056;-59
2022/01/27 06:01:04;;;;;;;6.57;4.00;;;;;;;-10.26;73.59;100630.97;5057324;28;20045;-58
2022/01/27 06:03:35;;;;;;;7.15;4.35;;;;;;;-10.29;73.63;100635.84;5054376;28;20059;-58
2022/01/27 06:06:06;;;;;;;6.68;4.05;;;;;;;-10.86;73.56;100549.28;5055358;28;20216;-58
2022/01/27 06:08:38;;;;;;;5.82;4.07;;;;;;;-10.36;72.92;100636.16;5056696;28;20808;-58
2022/01/27 06:11:09;;;;;;;7.93;4.32;;;;;;;-10.39;72.27;100636.81;5056429;28;20084;-59
2022/01/27 06:13:40;;;;;;;6.45;4.28;;;;;;;-10.38;71.87;100637.69;5056184;28;20083;-58
2022/01/27 06:16:12;;;;;;;5.43;4.25;;;;;;;-10.40;71.79;100641.78;5055847;28;20053;-57
2022/01/27 06:18:42;;;;;;;5.40;4.18;;;;;;;-10.44;71.78;100636.50;5056719;28;20108;-58
2022/01/27 06:21:13;;;;;;;6.57;3.47;;;;;;;-10.51;71.57;100643.50;5055587;28;20069;-58
2022/01/27 06:23:46;;;;;;;6.45;4.10;;;;;;;-10.56;71.34;100638.13;5055326;28;20056;-60
2022/01/27 06:26:16;;;;;;;8.85;4.38;;;;;;;-10.63;71.27;100633.41;5055810;28;20087;-58
2022/01/27 06:28:47;;;;;;;6.35;4.00;;;;;;;-10.62;70.86;100645.25;5055490;28;20044;-58
2022/01/27 06:31:18;;;;;;;6.38;4.35;;;;;;;-10.69;70.60;100643.03;5055873;28;20056;-57
2022/01/27 06:33:48;;;;;;;4.43;3.55;;;;;;;-10.78;71.38;100642.34;5055802;28;20071;-59
2022/01/27 06:36:19;;;;;;;5.82;3.70;;;;;;;-10.87;71.65;100648.47;5055356;28;20080;-58
2022/01/27 06:38:51;;;;;;;6.22;3.65;;;;;;;-10.87;72.04;100650.13;4984202;28;20041;-58
2022/01/27 06:41:22;;;;;;;5.75;3.97;;;;;;;-10.92;72.05;100634.63;5033766;28;20049;-58
2022/01/27 06:43:54;;;;;;;5.45;3.53;;;;;;;-10.90;72.32;100649.91;5035923;28;20057;-57
2022/01/27 06:46:24;;;;;;;6.25;4.70;;;;;;;-10.93;72.50;100652.19;5035597;28;20053;-58
2022/01/27 06:48:56;;;;;;;12.00;7.65;;;;;;;-10.99;72.50;100657.66;5035358;28;20049;-59
2022/01/27 06:51:27;;;;;;;11.07;7.63;;;;;;;-11.09;72.64;100660.25;5035491;28;20125;-58
2022/01/27 06:54:00;;;;;;;7.65;5.35;;;;;;;-11.11;72.73;100659.25;5034964;28;20230;-58
2022/01/27 06:56:30;;;;;;;7.93;4.88;;;;;;;-11.20;73.31;100656.91;5035650;28;20055;-58
2022/01/27 06:59:02;;;;;;;8.20;4.60;;;;;;;-11.21;73.22;100654.25;5035619;28;20217;-57
2022/01/27 07:01:33;;;;;;;7.32;4.15;;;;;;;-11.24;73.06;100651.50;5035715;28;20234;-57
2022/01/27 07:04:04;;;;;;;6.20;4.28;;;;;;;-11.25;73.21;100662.38;5036012;28;20121;-58
2022/01/27 07:06:35;;;;;;;6.05;3.88;;;;;;;-11.31;72.91;100660.25;5035927;28;20296;-59
2022/01/27 07:09:08;;;;;;;5.63;3.50;;;;;;;-12.17;73.07;100526.00;5034736;28;20041;-58
2022/01/27 07:11:39;;;;;;;5.47;3.60;;;;;;;-11.51;73.08;100648.63;5035550;28;20053;-57
2022/01/27 07:14:09;;;;;;;5.85;3.47;;;;;;;-11.52;73.09;100659.50;5035343;28;20064;-57
2022/01/27 07:16:40;;;;;;;8.75;4.00;;;;;;;-11.61;73.35;100657.13;5035965;28;20214;-58
2022/01/27 07:19:11;;;;;;;9.15;4.38;;;;;;;-11.72;73.41;100658.81;5033364;28;20515;-59
2022/01/27 07:21:41;;;;;;;13.02;6.80;;;;;;;-11.80;73.36;100659.84;5035324;28;20335;-57
2022/01/27 07:24:14;;;;;;;14.10;6.88;;;;;;;-11.87;73.11;100662.69;5035576;28;20057;-58
2022/01/27 07:26:44;;;;;;;17.15;6.30;;;;;;;-12.00;73.09;100659.97;5035630;28;20590;-57
2022/01/27 07:29:15;;;;;;;8.40;5.93;;;;;;;-12.07;73.21;100662.75;5035115;28;20312;-57
2022/01/27 07:31:46;;;;;;;7.80;4.75;;;;;;;-12.20;73.03;100660.91;5035668;28;20041;-58
2022/01/27 07:34:17;;;;;;;6.57;4.82;;;;;;;-12.44;72.36;100657.28;5033577;28;20054;-59
2022/01/27 07:36:48;;;;;;;8.45;4.97;;;;;;;-12.64;72.15;100671.63;5035494;28;20304;-58
2022/01/27 07:39:33;;;;;;;8.57;5.00;;;;;;;-12.93;71.62;100680.94;5035086;28;20064;-57
2022/01/27 07:42:05;;;;;;;10.90;6.20;;;;;;;-13.25;71.98;100661.53;5035407;28;20103;-58
2022/01/27 07:44:35;;;;;;;11.30;7.78;;;;;;;-13.39;72.55;100679.63;5035281;28;20068;-59
2022/01/27 07:47:07;;;;;;;13.30;7.90;;;;;;;-13.63;72.43;100686.81;5035597;28;20091;-57
2022/01/27 07:49:37;;;;;;;11.30;6.57;;;;;;;-13.79;72.75;100684.63;5035317;28;20120;-58
2022/01/27 07:52:13;;;;;;;47.30;26.25;;;;;;;-14.10;72.98;100658.50;5035366;28;20053;-57
2022/01/27 07:54:45;;;;;;;34.17;19.20;;;;;;;-14.26;73.42;100683.00;5035069;28;20124;-57
2022/01/27 07:57:16;;;;;;;55.92;28.88;;;;;;;-14.44;73.72;100683.13;5035150;28;20060;-57
2022/01/27 07:59:47;;;;;;;38.28;25.88;;;;;;;-14.62;74.06;100676.50;5035178;28;20056;-57
2022/01/27 08:02:18;;;;;;;7.40;5.97;;;;;;;-14.82;74.22;100683.13;5035376;28;20065;-57
2022/01/27 08:04:49;;;;;;;8.40;5.97;;;;;;;-15.02;74.98;100690.47;5035148;28;20291;-57
2022/01/27 08:07:19;;;;;;;11.45;8.57;;;;;;;-15.18;75.50;100684.78;5035061;28;20061;-58
2022/01/27 08:09:54;;;;;;;24.35;16.23;;;;;;;-15.35;75.81;100685.72;5034499;28;20041;-56
2022/01/27 08:12:25;;;;;;;13.13;8.73;;;;;;;-15.51;76.18;100683.44;5034196;28;20120;-57
2022/01/27 08:14:56;;;;;;;7.65;5.50;;;;;;;-15.66;76.66;100666.22;5034097;28;20064;-59
2022/01/27 08:17:26;;;;;;;8.48;5.45;;;;;;;-15.55;77.48;100691.41;5034083;28;20056;-57
2022/01/27 08:19:57;;;;;;;8.32;5.93;;;;;;;-15.50;78.12;100680.16;5033753;28;20061;-57
2022/01/27 08:22:28;;;;;;;13.55;7.88;;;;;;;-15.51;78.21;100678.41;5032702;28;20346;-58
2022/01/27 08:25:00;;;;;;;15.82;8.55;;;;;;;-15.46;78.10;100684.75;5033793;28;20120;-56
2022/01/27 08:27:31;;;;;;;9.50;5.43;;;;;;;-15.45;78.49;100684.00;5033694;28;20232;-57
2022/01/27 08:30:05;;;;;;;16.77;7.38;;;;;;;-15.47;78.63;100676.34;5034308;28;20057;-59
2022/01/27 08:32:46;;;;;;;17.50;7.50;;;;;;;-15.47;78.56;100677.97;5032943;28;20385;-58
2022/01/27 08:35:20;;;;;;;25.98;10.63;;;;;;;-15.50;78.75;100647.59;5034068;28;20052;-55
2022/01/27 08:37:51;;;;;;;40.55;14.20;;;;;;;-15.18;79.05;100684.78;5034302;28;20095;-59
2022/01/27 08:40:25;;;;;;;14.05;7.97;;;;;;;-15.23;78.56;100687.72;5034293;28;20085;-56
2022/01/27 08:43:11;;;;;;;13.13;6.45;;;;;;;-15.06;78.63;100686.78;5034148;28;20112;-58
2022/01/27 08:45:42;;;;;;;8.88;5.93;;;;;;;-15.03;78.08;100689.56;5034068;28;20076;-58
2022/01/27 08:48:17;;;;;;;10.23;6.70;;;;;;;-14.98;77.81;100695.00;5034211;28;20076;-54
2022/01/27 08:50:53;;;;;;;10.85;6.20;;;;;;;-15.01;77.35;100694.72;5032987;28;20064;-57
2022/01/27 08:53:44;;;;;;;8.30;5.80;;;;;;;-15.15;76.89;100695.94;5033666;28;20049;-57
2022/01/27 08:56:17;;;;;;;8.70;4.88;;;;;;;-15.28;76.35;100701.47;5032869;28;20087;-57
2022/01/27 08:58:48;;;;;;;14.00;6.78;;;;;;;-15.35;76.64;100691.59;5033586;28;20065;-56
2022/01/27 09:01:20;;;;;;;16.17;6.10;;;;;;;-15.37;76.67;100698.13;5030782;28;20050;-58
2022/01/27 09:03:52;;;;;;;25.27;13.75;;;;;;;-15.43;76.72;100692.53;5033727;28;20049;-58
2022/01/27 09:06:23;;;;;;;34.65;16.83;;;;;;;-15.49;76.62;100691.97;5031996;28;20091;-56
2022/01/27 09:08:54;;;;;;;48.75;22.13;;;;;;;-15.53;76.32;100694.94;5031678;28;20096;-55
2022/01/27 09:11:28;;;;;;;36.03;14.95;;;;;;;-15.57;75.99;100698.78;5032861;28;20347;-57
2022/01/27 09:13:59;;;;;;;49.92;22.35;;;;;;;-15.76;75.37;100691.19;5033737;28;20217;-57
2022/01/27 09:16:31;;;;;;;45.92;17.33;;;;;;;-16.19;75.33;100636.22;5033578;28;20128;-59
2022/01/27 09:19:14;;;;;;;26.65;11.07;;;;;;;-15.87;75.53;100696.81;5032450;28;20045;-59
2022/01/27 09:21:46;;;;;;;30.77;10.88;;;;;;;-15.83;75.30;100701.38;4994056;28;20417;-56
2022/01/27 09:24:27;;;;;;;13.05;7.47;;;;;;;-16.18;74.88;100628.81;4993533;28;20395;-56
2022/01/27 09:27:01;;;;;;;16.05;7.65;;;;;;;-15.82;74.41;100703.16;4994314;28;20069;-55
2022/01/27 09:29:33;;;;;;;26.90;11.48;;;;;;;-15.94;74.27;100709.50;4995035;28;20062;-57
2022/01/27 09:32:05;;;;;;;24.35;12.43;;;;;;;-15.94;74.20;100709.50;4993064;28;20054;-59
2022/01/27 09:34:37;;;;;;;11.07;7.85;;;;;;;-16.06;74.19;100708.31;4992276;28;20101;-58
2022/01/27 09:37:08;;;;;;;10.35;6.50;;;;;;;-16.19;73.95;100692.13;4993040;28;20252;-56
2022/01/27 09:39:42;;;;;;;6.45;5.53;;;;;;;-16.28;73.73;100701.25;4990899;28;20108;-56
2022/01/27 09:42:16;;;;;;;9.18;5.70;;;;;;;-16.59;73.69;100678.28;4989900;28;20054;-55
2022/01/27 09:44:52;;;;;;;9.40;6.28;;;;;;;-16.65;74.40;100715.19;4991649;28;20062;-57
2022/01/27 09:47:29;;;;;;;5.45;4.47;;;;;;;-16.75;75.15;100700.03;4992962;28;20058;-58
2022/01/27 09:50:19;;;;;;;8.30;4.55;;;;;;;-16.63;75.15;100706.22;4993311;28;20498;-59
2022/01/27 09:52:51;;;;;;;8.45;4.70;;;;;;;-16.54;75.24;100709.63;4993199;28;20061;-58
2022/01/27 09:55:23;;;;;;;5.93;3.67;;;;;;;-16.48;75.04;100705.94;4991945;28;20054;-60
2022/01/27 09:58:01;;;;;;;5.38;4.03;;;;;;;-16.57;74.63;100690.91;4992249;28;20100;-56
2022/01/27 10:00:34;;;;;;;5.68;3.83;;;;;;;-16.58;74.23;100700.03;4992408;28;20073;-56
2022/01/27 10:03:11;;;;;;;5.90;4.38;;;;;;;-16.56;73.98;100706.09;4991779;28;20046;-56
2022/01/27 10:05:44;;;;;;;4.65;3.67;;;;;;;-16.68;73.57;100697.38;4991512;28;20072;-58
2022/01/27 10:08:17;;;;;;;6.85;4.05;;;;;;;-16.64;73.21;100686.97;4990719;28;20054;-58
2022/01/27 10:10:54;;;;;;;4.70;3.80;;;;;;;-16.65;72.92;100687.69;4991269;28;20314;-57
2022/01/27 10:13:37;;;;;;;4.70;3.83;;;;;;;-16.65;72.54;100692.69;4990249;28;20062;-57
2022/01/27 10:16:09;;;;;;;4.47;3.60;;;;;;;-16.52;72.61;100698.16;4989408;28;20062;-59
2022/01/27 10:18:44;;;;;;;4.75;3.65;;;;;;;-16.73;72.34;100673.56;4990753;28;20349;-57
2022/01/27 10:21:18;;;;;;;4.13;3.35;;;;;;;-16.80;72.15;100691.22;5024539;28;20464;-58
2022/01/27 10:23:52;;;;;;;5.93;4.18;;;;;;;-16.99;72.04;100686.06;5031767;28;20053;-57
2022/01/27 10:26:30;;;;;;;5.25;4.13;;;;;;;-17.16;72.37;100679.38;5031631;28;20075;-56
2022/01/27 10:29:12;;;;;;;7.30;4.80;;;;;;;-17.15;72.20;100686.13;5029380;28;20245;-57
2022/01/27 10:31:45;;;;;;;7.15;4.43;;;;;;;-17.04;72.58;100690.59;5033213;28;20059;-55
2022/01/27 10:34:18;;;;;;;6.68;4.43;;;;;;;-17.00;72.13;100687.63;5031141;28;20096;-54
2022/01/27 10:36:50;;;;;;;5.93;4.43;;;;;;;-16.96;72.70;100674.72;5032707;28;20057;-55
2022/01/27 10:39:24;;;;;;;7.22;4.45;;;;;;;-16.86;73.27;100690.63;5032805;28;20096;-55
2022/01/27 10:42:06;;;;;;;9.93;5.40;;;;;;;-16.94;73.36;100687.38;5033077;28;20343;-58
2022/01/27 10:44:44;;;;;;;15.27;8.50;;;;;;;-17.59;73.82;100595.22;5033126;28;20053;-54
2022/01/27 10:47:27;;;;;;;7.45;5.38;;;;;;;-16.84;73.89;100699.19;5035632;28;20364;-57
2022/01/27 10:50:02;;;;;;;5.57;3.75;;;;;;;-16.84;73.60;100684.19;5036402;28;20057;-58
2022/01/27 10:52:39;;;;;;;6.50;3.65;;;;;;;-17.16;72.61;100644.41;5035284;28;20403;-55
2022/01/27 10:55:14;;;;;;;4.95;3.90;;;;;;;-17.24;71.70;100692.72;5035460;28;20053;-58
2022/01/27 10:57:50;;;;;;;5.63;3.65;;;;;;;-17.34;71.84;100702.50;5036658;28;20053;-56
2022/01/27 11:00:26;;;;;;;7.68;5.10;;;;;;;-17.33;72.52;100710.16;5032542;28;20128;-57
2022/01/27 11:03:01;;;;;;;15.38;5.85;;;;;;;-17.52;72.72;100692.47;5035732;28;20049;-56
2022/01/27 11:05:35;;;;;;;9.18;4.65;;;;;;;-17.56;72.85;100700.38;5036323;28;20087;-54
2022/01/27 11:08:06;;;;;;;5.22;4.10;;;;;;;-17.66;73.07;100705.16;5036060;28;20091;-56
2022/01/27 11:10:39;;;;;;;5.10;4.47;;;;;;;-17.89;73.57;100698.75;5036060;28;20045;-56
2022/01/27 11:13:11;;;;;;;5.43;3.90;;;;;;;-17.89;73.78;100703.75;5035893;28;20050;-55
2022/01/27 11:15:44;;;;;;;73.70;23.20;;;;;;;-18.14;73.66;100654.53;5036141;28;20057;-56
2022/01/27 11:18:17;;;;;;;22.13;10.80;;;;;;;-18.17;74.16;100684.16;5035834;28;20370;-54
2022/01/27 11:20:54;;;;;;;13.50;9.43;;;;;;;-18.35;74.09;100699.00;5035080;28;20087;-54
2022/01/27 11:24:04;;;;;;;28.20;13.52;;;;;;;-18.39;74.73;100698.50;5034894;28;20049;-57
2022/01/27 11:26:40;;;;;;;30.83;14.00;;;;;;;-18.47;74.80;100687.75;5034427;28;20063;-55
2022/01/27 11:29:14;;;;;;;17.67;9.73;;;;;;;-18.71;74.86;100681.97;5034713;28;20292;-57
2022/01/27 11:32:10;;;;;;;18.13;10.18;;;;;;;-18.63;74.94;100659.47;5034058;28;20127;-56
2022/01/27 11:34:49;;;;;;;24.75;13.50;;;;;;;-18.48;75.12;100661.06;5033184;28;20053;-57
2022/01/27 11:37:33;;;;;;;12.30;8.63;;;;;;;-18.77;74.84;100621.53;5033539;28;20111;-56
2022/01/27 11:40:08;;;;;;;12.48;7.85;;;;;;;-18.20;75.66;100673.88;5035163;28;20084;-56
2022/01/27 11:43:11;;;;;;;4.95;4.45;;;;;;;-18.12;74.75;100678.03;5035286;28;20056;-57
2022/01/27 11:45:47;;;;;;;5.95;4.68;;;;;;;-18.17;73.77;100679.16;5035184;28;20088;-57
2022/01/27 11:48:23;;;;;;;6.03;4.50;;;;;;;-18.12;73.76;100688.00;5036751;28;20084;-55
2022/01/27 11:51:10;;;;;;;8.75;4.80;;;;;;;-18.11;73.41;100682.31;5035459;28;20053;-56
2022/01/27 11:53:42;;;;;;;3.60;3.30;;;;;;;-18.42;73.05;100654.19;5034984;28;20076;-57
2022/01/27 11:56:36;;;;;;;3.58;3.20;;;;;;;-18.13;73.25;100681.28;5034991;28;20096;-55
2022/01/27 11:59:09;;;;;;;3.60;3.30;;;;;;;-18.23;72.94;100678.56;5035621;28;20046;-54
2022/01/27 12:01:40;;;;;;;4.10;3.55;;;;;;;-18.71;72.99;100622.16;5032528;28;20053;-54
2022/01/27 12:04:16;;;;;;;11.80;7.47;;;;;;;-19.17;73.30;100552.63;5033781;28;20061;-55
2022/01/27 12:07:07;;;;;;;6.88;5.75;;;;;;;-18.28;73.34;100685.56;5017460;28;20041;-55